createdAt,value
2022-11-28T00:04:52.029Z,1.42
2022-11-28T00:07:53.825Z,1.85
2022-11-28T00:10:55.442Z,1.70
2022-11-28T00:13:56.977Z,1.50
2022-11-28T00:16:58.502Z,1.75
2022-11-28T00:20:00.117Z,1.52
2022-11-28T00:23:01.591Z,1.75
2022-11-28T00:26:12.259Z,1.48
2022-11-28T00:29:13.742Z,1.55
2022-11-28T00:32:15.376Z,1.50
2022-11-28T00:35:17.004Z,1.65
2022-11-28T00:38:18.503Z,1.48
2022-11-28T00:41:26.131Z,1.48
2022-11-28T00:44:27.589Z,1.40
2022-11-28T00:47:29.056Z,1.40
2022-11-28T00:50:30.526Z,1.60
2022-11-28T00:53:32.042Z,1.50
2022-11-28T00:56:37.031Z,1.70
2022-11-28T00:59:38.577Z,1.63
2022-11-28T01:02:40.159Z,1.40
2022-11-28T01:05:43.319Z,1.70
2022-11-28T01:08:44.812Z,1.50
2022-11-28T01:11:49.114Z,1.50
2022-11-28T01:14:50.626Z,1.40
2022-11-28T01:17:52.146Z,1.73
2022-11-28T01:20:53.644Z,1.50
2022-11-28T01:23:55.224Z,1.60
2022-11-28T01:26:56.684Z,1.65
2022-11-28T01:29:58.185Z,1.35
2022-11-28T01:32:59.726Z,1.50
2022-11-28T01:36:01.621Z,1.30
2022-11-28T01:39:03.592Z,1.48
2022-11-28T01:42:05.130Z,1.30
2022-11-28T01:45:24.412Z,1.52
2022-11-28T01:48:38.289Z,1.40
2022-11-28T01:51:45.186Z,1.40
2022-11-28T01:54:51.209Z,1.33
2022-11-28T01:57:55.741Z,1.30
2022-11-28T02:00:58.108Z,1.60
2022-11-28T02:04:04.265Z,1.30
2022-11-28T02:07:06.044Z,1.50
2022-11-28T02:10:10.298Z,1.30
2022-11-28T02:13:26.747Z,1.38
2022-11-28T02:16:37.419Z,1.35
2022-11-28T02:19:38.929Z,1.38
2022-11-28T02:22:49.417Z,1.30
2022-11-28T02:26:10.687Z,1.40
2022-11-28T02:29:34.020Z,1.40
2022-11-28T02:32:54.008Z,1.30
2022-11-28T02:36:04.797Z,2.05
2022-11-28T02:39:30.113Z,1.30
2022-11-28T02:42:57.459Z,1.33
2022-11-28T02:49:27.163Z,1.40
2022-11-28T02:52:37.743Z,1.30
2022-11-28T02:55:40.734Z,1.25
2022-11-28T02:58:42.238Z,1.30
2022-11-28T03:01:43.875Z,1.30
2022-11-28T03:04:51.817Z,1.50
2022-11-28T03:08:23.101Z,1.20
2022-11-28T03:11:30.440Z,1.38
2022-11-28T03:14:54.589Z,1.25
2022-11-28T03:18:13.756Z,1.20
2022-11-28T03:21:24.798Z,1.40
2022-11-28T03:24:44.399Z,1.40
2022-11-28T03:27:53.847Z,1.40
2022-11-28T03:31:02.602Z,1.20
2022-11-28T03:34:08.465Z,1.27
2022-11-28T03:37:26.549Z,1.40
2022-11-28T03:40:33.336Z,1.20
2022-11-28T03:43:41.277Z,1.30
2022-11-28T03:46:47.879Z,1.42
2022-11-28T03:49:52.992Z,1.30
2022-11-28T03:53:03.734Z,1.30
2022-11-28T03:56:13.760Z,1.25
2022-11-28T03:59:18.062Z,1.38
2022-11-28T04:02:34.152Z,1.38
2022-11-28T04:05:56.780Z,1.33
2022-11-28T04:09:10.159Z,1.48
2022-11-28T04:12:44.896Z,1.10
2022-11-28T04:15:46.374Z,1.23
2022-11-28T04:18:55.328Z,1.45
2022-11-28T04:22:09.708Z,1.40
2022-11-28T04:25:15.861Z,1.20
2022-11-28T04:28:21.824Z,1.30
2022-11-28T04:31:24.632Z,1.20
2022-11-28T04:34:29.305Z,1.00
2022-11-28T04:37:34.626Z,1.17
2022-11-28T04:40:41.595Z,1.00
2022-11-28T04:43:48.323Z,1.10
2022-11-28T04:46:53.850Z,1.30
2022-11-28T04:49:55.580Z,1.17
2022-11-28T04:53:10.663Z,1.10
2022-11-28T04:56:17.961Z,1.20
2022-11-28T04:59:22.020Z,1.10
2022-11-28T05:02:24.945Z,1.20
2022-11-28T05:05:28.385Z,1.20
2022-11-28T05:08:30.086Z,1.25
2022-11-28T05:11:32.222Z,1.10
2022-11-28T05:14:33.768Z,1.10
2022-11-28T05:17:40.502Z,1.15
2022-11-28T05:20:43.672Z,1.30
2022-11-28T05:23:45.835Z,1.15
2022-11-28T05:26:47.796Z,1.33
2022-11-28T05:29:52.266Z,1.27
2022-11-28T05:32:53.972Z,1.35
2022-11-28T05:35:55.944Z,1.10
2022-11-28T05:38:57.592Z,1.10
2022-11-28T05:41:59.267Z,1.23
2022-11-28T05:45:00.840Z,1.02
2022-11-28T05:48:02.311Z,1.40
2022-11-28T05:51:07.102Z,1.10
2022-11-28T05:54:08.651Z,1.20
2022-11-28T05:57:10.124Z,1.17
2022-11-28T06:00:12.155Z,1.25
2022-11-28T06:03:13.631Z,1.17
2022-11-28T06:06:20.699Z,1.20
2022-11-28T06:09:25.804Z,0.93
2022-11-28T06:12:27.790Z,1.10
2022-11-28T06:15:34.897Z,1.00
2022-11-28T06:18:40.139Z,1.10
2022-11-28T06:21:41.669Z,1.00
2022-11-28T06:24:43.180Z,1.00
2022-11-28T06:27:44.760Z,1.13
2022-11-28T06:30:46.286Z,1.20
2022-11-28T06:33:47.916Z,1.10
2022-11-28T06:36:49.408Z,1.08
2022-11-28T06:39:51.272Z,1.10
2022-11-28T06:42:52.785Z,1.00
2022-11-28T06:45:54.371Z,1.17
2022-11-28T06:48:56.010Z,1.10
2022-11-28T06:51:57.496Z,1.02
2022-11-28T06:54:59.072Z,1.17
2022-11-28T06:58:00.636Z,1.20
2022-11-28T07:01:11.221Z,1.10
2022-11-28T07:04:12.780Z,1.00
2022-11-28T07:07:16.628Z,1.10
2022-11-28T07:10:18.450Z,1.10
2022-11-28T07:13:19.924Z,1.10
2022-11-28T07:16:24.014Z,0.90
2022-11-28T07:19:25.485Z,1.17
2022-11-28T07:22:27.066Z,1.02
2022-11-28T07:25:28.567Z,1.17
2022-11-28T07:28:31.108Z,1.10
2022-11-28T07:31:33.578Z,1.50
2022-11-28T07:34:35.765Z,0.95
2022-11-28T07:37:37.316Z,1.10
2022-11-28T07:40:38.804Z,1.10
2022-11-28T07:43:42.824Z,0.98
2022-11-28T07:46:45.565Z,0.98
2022-11-28T07:49:47.139Z,1.10
2022-11-28T07:52:51.213Z,1.10
2022-11-28T07:55:52.678Z,1.00
2022-11-28T07:58:55.437Z,1.10
2022-11-28T08:01:59.440Z,1.10
2022-11-28T08:05:01.026Z,1.08
2022-11-28T08:08:02.639Z,1.10
2022-11-28T08:11:06.643Z,1.10
2022-11-28T08:14:08.218Z,1.10
2022-11-28T08:17:09.723Z,1.20
2022-11-28T08:20:11.753Z,1.00
2022-11-28T08:23:13.429Z,1.00
2022-11-28T08:26:16.629Z,1.00
2022-11-28T08:29:18.466Z,1.20
2022-11-28T08:32:20.335Z,1.08
2022-11-28T08:35:21.886Z,1.10
2022-11-28T08:38:23.344Z,0.98
2022-11-28T08:41:24.834Z,1.00
2022-11-28T08:44:27.580Z,1.20
2022-11-28T08:47:29.107Z,1.13
2022-11-28T08:50:30.655Z,1.10
2022-11-28T08:53:32.507Z,1.10
2022-11-28T08:56:34.108Z,1.10
2022-11-28T08:59:35.800Z,1.20
2022-11-28T09:02:37.336Z,1.10
2022-11-28T09:05:38.879Z,1.10
2022-11-28T09:08:40.596Z,1.10
2022-11-28T09:11:42.557Z,1.05
2022-11-28T09:14:44.050Z,1.20
2022-11-28T09:17:46.280Z,1.10
2022-11-28T09:20:47.731Z,1.40
2022-11-28T09:23:49.289Z,1.05
2022-11-28T09:26:50.758Z,1.10
2022-11-28T09:29:52.233Z,1.20
2022-11-28T09:32:54.121Z,1.30
2022-11-28T09:35:55.683Z,1.30
2022-11-28T09:39:00.292Z,1.15
2022-11-28T09:42:12.232Z,1.10
2022-11-28T09:45:18.927Z,1.15
2022-11-28T09:48:45.917Z,1.10
2022-11-28T09:51:59.229Z,1.10
2022-11-28T09:55:32.547Z,1.10
2022-11-28T09:58:43.588Z,1.10
2022-11-28T10:02:15.665Z,1.27
2022-11-28T10:05:41.231Z,3.65
2022-11-28T10:09:04.488Z,4.90
2022-11-28T10:12:31.220Z,5.35
2022-11-28T10:16:09.719Z,5.82
2022-11-28T10:19:38.323Z,6.00
2022-11-28T10:22:40.460Z,6.82
2022-11-28T10:25:53.634Z,6.68
2022-11-28T10:28:57.874Z,6.10
2022-11-28T10:32:03.477Z,6.25
2022-11-28T10:35:11.259Z,6.32
2022-11-28T10:38:14.237Z,6.72
2022-11-28T10:41:38.882Z,6.25
2022-11-28T10:44:58.181Z,6.60
2022-11-28T10:48:37.921Z,7.78
2022-11-28T10:51:56.079Z,9.52
2022-11-28T10:58:27.127Z,14.18
2022-11-28T11:01:37.216Z,15.37
2022-11-28T11:04:39.330Z,15.73
2022-11-28T11:07:48.110Z,14.50
2022-11-28T11:10:52.271Z,14.05
2022-11-28T11:14:05.796Z,15.77
2022-11-28T11:17:07.498Z,16.15
2022-11-28T11:20:27.338Z,15.70
2022-11-28T11:23:32.812Z,14.82
2022-11-28T11:26:42.152Z,15.07
2022-11-28T11:29:45.344Z,13.27
2022-11-28T11:32:51.459Z,12.98
2022-11-28T11:35:53.303Z,14.43
2022-11-28T11:39:05.275Z,13.57
2022-11-28T11:42:06.811Z,13.93
2022-11-28T11:45:46.189Z,14.88
2022-11-28T11:48:53.309Z,13.40
2022-11-28T11:52:03.815Z,13.02
2022-11-28T11:55:15.426Z,13.07
2022-11-28T11:58:23.579Z,13.57
2022-11-28T12:01:27.058Z,11.63
2022-11-28T12:04:46.257Z,12.43
2022-11-28T12:08:18.302Z,12.02
2022-11-28T12:11:46.956Z,10.85
2022-11-28T12:14:50.303Z,11.25
2022-11-28T12:18:35.430Z,12.10
2022-11-28T12:21:49.008Z,11.43
2022-11-28T12:25:10.283Z,11.00
2022-11-28T12:28:30.281Z,10.38
2022-11-28T12:31:53.800Z,10.30
2022-11-28T12:35:33.773Z,10.43
2022-11-28T12:39:02.371Z,9.05
2022-11-28T12:42:36.450Z,9.90
2022-11-28T12:46:22.317Z,8.93
2022-11-28T12:49:54.102Z,9.93
2022-11-28T12:53:09.758Z,9.23
2022-11-28T12:56:27.554Z,8.00
2022-11-28T12:59:44.331Z,9.15
2022-11-28T13:03:07.893Z,8.45
2022-11-28T13:06:46.663Z,8.25
2022-11-28T13:10:08.610Z,7.97
2022-11-28T13:13:16.609Z,7.97
2022-11-28T13:16:43.136Z,7.47
2022-11-28T13:19:54.103Z,7.30
2022-11-28T13:22:59.587Z,7.78
2022-11-28T13:26:15.565Z,7.13
2022-11-28T13:29:32.403Z,7.53
2022-11-28T13:39:51.634Z,6.78
2022-11-28T13:43:20.216Z,6.20
2022-11-28T13:46:22.748Z,6.25
2022-11-28T13:49:29.511Z,6.28
2022-11-28T13:52:32.674Z,5.93
2022-11-28T13:56:02.947Z,6.07
2022-11-28T13:59:04.589Z,5.68
2022-11-28T14:02:21.922Z,6.32
2022-11-28T14:05:36.501Z,6.00
2022-11-28T14:08:41.244Z,5.70
2022-11-28T14:11:54.901Z,5.25
2022-11-28T14:15:30.590Z,5.82
2022-11-28T14:19:06.506Z,5.45
2022-11-28T14:22:08.439Z,5.25
2022-11-28T14:25:19.501Z,5.00
2022-11-28T14:28:37.707Z,5.18
2022-11-28T14:31:40.106Z,5.30
2022-11-28T14:34:45.844Z,4.80
2022-11-28T14:37:50.477Z,5.00
2022-11-28T14:40:55.031Z,5.35
2022-11-28T14:44:35.465Z,4.80
2022-11-28T14:47:42.590Z,5.00
2022-11-28T14:51:00.556Z,5.10
2022-11-28T14:54:04.503Z,4.45
2022-11-28T14:57:33.061Z,4.57
2022-11-28T15:00:54.425Z,4.60
2022-11-28T15:04:14.055Z,4.22
2022-11-28T15:07:37.599Z,4.45
2022-11-28T15:11:03.634Z,4.40
2022-11-28T15:14:16.982Z,4.67
2022-11-28T15:17:22.417Z,3.78
2022-11-28T15:20:29.453Z,4.00
2022-11-28T15:23:32.406Z,4.72
2022-11-28T15:26:33.870Z,4.05
2022-11-28T15:29:36.412Z,3.92
2022-11-28T15:32:38.011Z,4.13
2022-11-28T15:35:52.397Z,3.85
2022-11-28T15:38:54.958Z,4.25
2022-11-28T15:42:00.348Z,3.75
2022-11-28T15:45:27.804Z,3.53
2022-11-28T15:48:47.773Z,4.00
2022-11-28T15:51:53.254Z,3.55
2022-11-28T15:54:54.800Z,3.38
2022-11-28T15:58:29.340Z,2.90
2022-11-28T16:01:31.668Z,3.40
2022-11-28T16:04:33.249Z,3.45
2022-11-28T16:07:41.232Z,3.08
2022-11-28T16:10:44.301Z,3.03
2022-11-28T16:13:46.543Z,3.10
2022-11-28T16:16:48.233Z,3.35
2022-11-28T16:19:51.653Z,2.90
2022-11-28T16:22:59.503Z,3.05
2022-11-28T16:26:19.337Z,3.00
2022-11-28T16:29:23.679Z,2.83
2022-11-28T16:32:39.898Z,3.15
2022-11-28T16:35:41.580Z,2.83
2022-11-28T16:38:44.846Z,2.45
2022-11-28T16:41:50.432Z,3.38
2022-11-28T16:44:52.033Z,2.93
2022-11-28T16:48:12.782Z,2.85
2022-11-28T16:51:14.741Z,2.78
2022-11-28T16:54:28.449Z,2.67
2022-11-28T16:57:46.799Z,2.40
2022-11-28T17:01:01.159Z,2.60
2022-11-28T17:04:03.945Z,2.85
2022-11-28T17:07:09.477Z,2.55
2022-11-28T17:10:14.169Z,2.73
2022-11-28T17:13:17.275Z,2.70
2022-11-28T17:16:21.801Z,2.35
2022-11-28T17:19:23.399Z,2.70
2022-11-28T17:22:29.561Z,2.63
2022-11-28T17:25:31.014Z,2.40
2022-11-28T17:28:32.562Z,2.58
2022-11-28T17:31:34.798Z,2.55
2022-11-28T17:34:39.132Z,2.63
2022-11-28T17:37:40.604Z,2.53
2022-11-28T17:40:44.539Z,2.33
2022-11-28T17:43:46.005Z,2.40
2022-11-28T17:46:50.496Z,2.35
2022-11-28T17:49:52.910Z,2.22
2022-11-28T17:52:55.654Z,2.25
2022-11-28T17:55:59.579Z,2.28
2022-11-28T17:59:02.284Z,2.30
2022-11-28T18:02:04.298Z,2.40
2022-11-28T18:05:06.183Z,2.20
2022-11-28T18:08:08.367Z,2.25
2022-11-28T18:11:11.807Z,2.30
2022-11-28T18:14:14.106Z,2.25
2022-11-28T18:17:15.673Z,2.17
2022-11-28T18:20:17.844Z,2.30
2022-11-28T18:23:20.322Z,2.45
2022-11-28T18:26:24.102Z,2.40
2022-11-28T18:29:26.106Z,2.30
2022-11-28T18:32:28.199Z,2.22
2022-11-28T18:35:29.882Z,2.25
2022-11-28T18:38:32.143Z,2.50
2022-11-28T18:41:33.895Z,2.30
2022-11-28T18:44:35.592Z,2.38
2022-11-28T18:47:37.128Z,2.35
2022-11-28T18:50:38.896Z,2.25
2022-11-28T18:53:41.483Z,2.47
2022-11-28T18:56:43.074Z,2.38
2022-11-28T18:59:50.013Z,2.25
2022-11-28T19:02:54.865Z,2.40
2022-11-28T19:05:56.407Z,2.20
2022-11-28T19:09:00.184Z,2.00
2022-11-28T19:12:01.726Z,1.92
2022-11-28T19:15:03.900Z,2.30
2022-11-28T19:18:05.859Z,2.33
2022-11-28T19:21:09.402Z,2.40
2022-11-28T19:24:12.594Z,2.30
2022-11-28T19:27:14.776Z,2.17
2022-11-28T19:30:17.593Z,1.92
2022-11-28T19:33:19.379Z,2.10
2022-11-28T19:36:21.121Z,2.33
2022-11-28T19:39:24.884Z,2.00
2022-11-28T19:42:26.632Z,1.90
2022-11-28T19:45:28.382Z,2.05
2022-11-28T19:48:32.394Z,2.10
2022-11-28T19:51:34.976Z,2.08
2022-11-28T19:54:37.073Z,1.80
2022-11-28T19:57:38.792Z,1.90
2022-11-28T20:00:41.058Z,1.90
2022-11-28T20:03:47.488Z,1.98
2022-11-28T20:06:49.262Z,2.05
2022-11-28T20:09:50.785Z,1.95
2022-11-28T20:12:54.136Z,2.10
2022-11-28T20:16:02.061Z,2.13
2022-11-28T20:19:05.160Z,1.73
2022-11-28T20:22:08.097Z,2.17
2022-11-28T20:25:10.031Z,1.83
2022-11-28T20:28:12.708Z,1.88
2022-11-28T20:31:27.685Z,1.88
2022-11-28T20:34:29.228Z,1.95
2022-11-28T20:37:30.705Z,1.70
2022-11-28T20:40:32.172Z,1.80
2022-11-28T20:43:36.040Z,1.83
2022-11-28T20:46:38.115Z,1.70
2022-11-28T20:49:39.617Z,2.00
2022-11-28T20:52:41.122Z,2.13
2022-11-28T20:55:42.588Z,1.90
2022-11-28T20:58:44.482Z,1.75
2022-11-28T21:01:46.244Z,1.80
2022-11-28T21:04:47.814Z,1.80
2022-11-28T21:07:49.323Z,2.00
2022-11-28T21:10:50.906Z,1.85
2022-11-28T21:13:52.544Z,1.70
2022-11-28T21:16:54.296Z,1.80
2022-11-28T21:19:55.848Z,1.70
2022-11-28T21:22:57.344Z,1.70
2022-11-28T21:26:03.996Z,1.55
2022-11-28T21:29:07.318Z,1.70
2022-11-28T21:32:10.439Z,1.90
2022-11-28T21:35:12.053Z,1.70
2022-11-28T21:38:13.603Z,1.52
2022-11-28T21:41:15.074Z,2.00
2022-11-28T21:44:16.646Z,1.70
2022-11-28T21:47:18.118Z,1.80
2022-11-28T21:50:19.953Z,1.70
2022-11-28T21:53:21.651Z,1.90
2022-11-28T21:56:23.606Z,1.70
2022-11-28T21:59:25.281Z,1.80
2022-11-28T22:02:30.909Z,2.00
2022-11-28T22:05:34.257Z,1.65
2022-11-28T22:08:35.869Z,1.80
2022-11-28T22:11:38.411Z,1.70
2022-11-28T22:14:39.910Z,1.58
2022-11-28T22:17:42.305Z,1.65
2022-11-28T22:20:46.708Z,1.70
2022-11-28T22:23:52.716Z,2.10
2022-11-28T22:26:54.801Z,2.05
2022-11-28T22:29:58.131Z,1.75
2022-11-28T22:32:59.657Z,1.70
2022-11-28T22:36:10.775Z,1.70
2022-11-28T22:39:12.801Z,1.40
2022-11-28T22:42:14.330Z,1.50
2022-11-28T22:45:15.969Z,1.80
2022-11-28T22:48:17.560Z,1.83
2022-11-28T22:51:25.240Z,2.03
2022-11-28T22:54:28.436Z,1.80
2022-11-28T22:57:30.599Z,1.70
2022-11-28T23:00:32.219Z,1.70
2022-11-28T23:03:35.293Z,1.75
2022-11-28T23:06:36.895Z,1.73
2022-11-28T23:09:39.387Z,1.77
2022-11-28T23:12:41.935Z,1.80
2022-11-28T23:15:46.209Z,1.80
2022-11-28T23:18:54.079Z,2.08
2022-11-28T23:21:55.627Z,1.60
2022-11-28T23:24:57.527Z,1.73
2022-11-28T23:27:58.990Z,1.80
2022-11-28T23:31:10.061Z,1.60
2022-11-28T23:34:11.988Z,1.70
2022-11-28T23:37:14.021Z,1.80
2022-11-28T23:40:15.632Z,1.73
2022-11-28T23:43:17.292Z,1.77
2022-11-28T23:46:20.234Z,2.10
2022-11-28T23:49:21.722Z,1.70
2022-11-28T23:52:23.181Z,1.83
2022-11-28T23:55:24.642Z,1.80
2022-11-28T23:58:26.814Z,1.70
